Time;durP1;ratioP1;P1;durP2;ratioP2;P2;SDS_P1;SDS_P2;PMS_P1;PMS_P2;Temp;Humidity;BMP_temperature;BMP_pressure;BME280_temperature;BME280_humidity;BME280_pressure;Samples;Min_cycle;Max_cycle;Signal;HPM_P1;HPM_P2
2022/03/16 00:00:56;;;;;;;1.35;0.98;;;;;;;;;;4976710;28;20495;-56
2022/03/16 00:03:23;;;;;;;1.17;1.08;;;;;;;;;;4986504;28;20038;-56
2022/03/16 00:05:49;;;;;;;1.27;0.98;;;;;;;;;;4986867;28;20026;-55
2022/03/16 00:08:15;;;;;;;1.58;1.30;;;;;;;;;;4986755;28;20153;-54
2022/03/16 00:10:41;;;;;;;1.38;1.00;;;;;;;;;;4987228;28;20030;-53
2022/03/16 00:13:07;;;;;;;1.13;0.80;;;;;;;;;;4982172;28;20042;-54
2022/03/16 00:15:33;;;;;;;0.70;0.70;;;;;;;;;;4985776;28;20506;-54
2022/03/16 00:17:59;;;;;;;0.88;0.88;;;;;;;;;;4987566;28;20034;-54
2022/03/16 00:20:26;;;;;;;1.60;1.05;;;;;;;;;;4986482;28;20188;-54
2022/03/16 00:22:52;;;;;;;1.10;0.80;;;;;;;;;;4985125;28;20098;-55
2022/03/16 00:25:18;;;;;;;1.95;1.10;;;;;;;;;;4986118;28;20066;-55
2022/03/16 00:27:45;;;;;;;1.15;1.05;;;;;;;;;;4985879;28;20026;-54
2022/03/16 00:30:11;;;;;;;1.40;1.10;;;;;;;;;;4987057;28;20839;-54
2022/03/16 00:32:37;;;;;;;1.42;1.00;;;;;;;;;;4985216;28;20030;-54
2022/03/16 00:35:04;;;;;;;1.88;1.00;;;;;;;;;;4986272;28;20032;-53
2022/03/16 00:37:32;;;;;;;2.13;1.10;;;;;;;;;;4986058;28;20106;-55
2022/03/16 00:39:58;;;;;;;2.33;1.20;;;;;;;;;;4985882;28;20033;-53
2022/03/16 00:42:25;;;;;;;1.67;1.48;;;;;;;;;;4985179;28;20108;-54
2022/03/16 00:44:52;;;;;;;1.85;1.40;;;;;;;;;;4986130;28;20130;-55
2022/03/16 00:47:18;;;;;;;1.30;1.20;;;;;;;;;;4985761;28;20030;-54
2022/03/16 00:49:45;;;;;;;1.75;1.13;;;;;;;;;;4986699;28;20469;-54
2022/03/16 00:52:11;;;;;;;1.85;1.52;;;;;;;;;;4985299;28;20103;-55
2022/03/16 00:54:38;;;;;;;3.17;2.17;;;;;;;;;;4984950;28;20038;-54
2022/03/16 00:57:04;;;;;;;2.88;2.10;;;;;;;;;;4986169;28;20027;-55
2022/03/16 00:59:31;;;;;;;2.60;1.70;;;;;;;;;;4984388;28;20029;-54
2022/03/16 01:01:58;;;;;;;2.85;1.80;;;;;;;;;;4982517;28;20088;-54
2022/03/16 01:04:24;;;;;;;2.65;1.92;;;;;;;;;;4985494;28;20157;-54
2022/03/16 01:06:53;;;;;;;4.15;2.28;;;;;;;;;;4984804;28;20113;-54
2022/03/16 01:09:20;;;;;;;3.67;2.20;;;;;;;;;;4965889;28;20105;-55
2022/03/16 01:11:48;;;;;;;2.60;1.90;;;;;;;;;;4965906;28;20059;-54
2022/03/16 01:14:15;;;;;;;2.70;1.70;;;;;;;;;;4983037;28;20027;-54
2022/03/16 01:16:41;;;;;;;2.72;1.80;;;;;;;;;;4985938;28;20101;-54
2022/03/16 01:19:08;;;;;;;2.45;1.80;;;;;;;;;;4984715;28;20062;-55
2022/03/16 01:21:34;;;;;;;3.50;2.03;;;;;;;;;;4985079;28;20109;-54
2022/03/16 01:24:00;;;;;;;2.85;1.60;;;;;;;;;;4985659;28;20324;-54
2022/03/16 01:26:27;;;;;;;1.80;1.33;;;;;;;;;;4985427;28;20716;-54
2022/03/16 01:28:53;;;;;;;1.75;1.50;;;;;;;;;;4985953;28;20041;-54
2022/03/16 01:31:20;;;;;;;2.80;1.40;;;;;;;;;;4984799;28;20113;-54
2022/03/16 01:33:46;;;;;;;1.65;1.30;;;;;;;;;;4984616;28;20034;-54
2022/03/16 01:36:12;;;;;;;1.75;1.40;;;;;;;;;;4985747;28;20255;-53
2022/03/16 01:38:38;;;;;;;1.67;1.45;;;;;;;;;;4985487;28;20048;-54
2022/03/16 01:41:04;;;;;;;1.25;1.00;;;;;;;;;;4984632;28;20030;-54
2022/03/16 01:43:30;;;;;;;1.70;1.30;;;;;;;;;;4984193;28;20029;-54
2022/03/16 01:45:57;;;;;;;3.13;1.88;;;;;;;;;;4985715;28;20401;-54
2022/03/16 01:48:23;;;;;;;2.08;1.42;;;;;;;;;;4985076;28;20023;-53
2022/03/16 01:50:49;;;;;;;2.45;1.67;;;;;;;;;;4984591;28;20033;-53
2022/03/16 01:53:15;;;;;;;2.65;1.27;;;;;;;;;;4985217;28;20080;-54
2022/03/16 01:55:42;;;;;;;1.35;1.25;;;;;;;;;;4985390;28;20026;-54
2022/03/16 01:58:10;;;;;;;1.17;1.02;;;;;;;;;;4975414;28;20077;-53
2022/03/16 02:00:36;;;;;;;3.55;1.38;;;;;;;;;;4981479;28;20425;-54
2022/03/16 02:03:03;;;;;;;1.70;1.33;;;;;;;;;;4982484;28;20030;-53
2022/03/16 02:05:30;;;;;;;1.50;1.35;;;;;;;;;;4967888;28;20030;-54
2022/03/16 02:07:57;;;;;;;3.42;1.27;;;;;;;;;;4969785;28;20070;-54
2022/03/16 02:10:23;;;;;;;2.88;1.65;;;;;;;;;;4969200;28;20065;-54
2022/03/16 02:12:51;;;;;;;1.58;1.45;;;;;;;;;;4969338;28;20035;-54
2022/03/16 02:15:17;;;;;;;2.15;1.60;;;;;;;;;;4970928;28;20069;-54
2022/03/16 02:17:43;;;;;;;3.33;1.40;;;;;;;;;;4989430;28;20022;-54
2022/03/16 02:20:10;;;;;;;3.40;1.15;;;;;;;;;;4988801;28;20138;-54
2022/03/16 02:22:36;;;;;;;2.30;1.30;;;;;;;;;;4988205;28;20034;-54
2022/03/16 02:25:03;;;;;;;2.15;1.80;;;;;;;;;;4987882;28;20038;-54
2022/03/16 02:27:29;;;;;;;2.63;1.33;;;;;;;;;;4988426;28;20023;-54
2022/03/16 02:29:55;;;;;;;1.38;1.27;;;;;;;;;;4988564;28;20053;-54
2022/03/16 02:32:22;;;;;;;1.92;1.30;;;;;;;;;;4986982;28;20026;-53
2022/03/16 02:34:48;;;;;;;1.48;1.30;;;;;;;;;;4988486;28;20033;-53
2022/03/16 02:37:14;;;;;;;4.22;1.60;;;;;;;;;;4989073;28;20030;-54
2022/03/16 02:39:40;;;;;;;1.98;1.58;;;;;;;;;;4987472;28;20030;-54
2022/03/16 02:42:06;;;;;;;5.32;2.25;;;;;;;;;;4988481;28;20409;-53
2022/03/16 02:44:33;;;;;;;2.75;1.77;;;;;;;;;;4987926;28;20046;-54
2022/03/16 02:47:00;;;;;;;4.22;1.60;;;;;;;;;;4988282;28;20401;-53
2022/03/16 02:49:28;;;;;;;1.83;1.45;;;;;;;;;;4988025;28;20030;-54
2022/03/16 02:51:56;;;;;;;2.78;1.60;;;;;;;;;;4988151;28;20054;-54
2022/03/16 02:54:22;;;;;;;2.47;1.70;;;;;;;;;;4987323;28;20033;-53
2022/03/16 02:56:48;;;;;;;3.33;1.80;;;;;;;;;;4987469;28;20026;-54
2022/03/16 02:59:14;;;;;;;6.32;3.55;;;;;;;;;;4988290;28;20062;-54
2022/03/16 03:01:40;;;;;;;6.55;3.47;;;;;;;;;;4985170;28;20030;-54
2022/03/16 03:04:06;;;;;;;6.22;2.72;;;;;;;;;;4968516;28;20090;-54
2022/03/16 03:06:33;;;;;;;3.75;2.78;;;;;;;;;;4968736;28;20031;-54
2022/03/16 03:09:00;;;;;;;5.63;2.92;;;;;;;;;;4968869;28;20023;-53
2022/03/16 03:11:27;;;;;;;3.47;2.35;;;;;;;;;;4967946;28;20529;-53
2022/03/16 03:13:53;;;;;;;6.13;2.40;;;;;;;;;;4968380;28;20030;-51
2022/03/16 03:16:19;;;;;;;2.65;1.77;;;;;;;;;;4968164;28;20037;-50
2022/03/16 03:18:45;;;;;;;4.05;1.85;;;;;;;;;;4987515;28;20026;-54
2022/03/16 03:21:12;;;;;;;3.40;2.25;;;;;;;;;;4988170;28;20030;-54
2022/03/16 03:23:38;;;;;;;4.65;2.10;;;;;;;;;;4987625;28;20026;-51
2022/03/16 03:26:04;;;;;;;3.90;2.33;;;;;;;;;;4987671;28;20030;-53
2022/03/16 03:28:31;;;;;;;2.17;1.88;;;;;;;;;;4986058;28;20053;-53
2022/03/16 03:30:57;;;;;;;3.22;1.95;;;;;;;;;;4967903;28;20533;-52
2022/03/16 03:33:24;;;;;;;3.47;1.90;;;;;;;;;;4968495;28;20109;-53
2022/03/16 03:35:51;;;;;;;1.90;1.50;;;;;;;;;;4987476;28;20035;-54
2022/03/16 03:38:17;;;;;;;2.80;1.73;;;;;;;;;;4987252;28;20019;-51
2022/03/16 03:40:44;;;;;;;2.15;1.38;;;;;;;;;;4987697;28;20805;-53
2022/03/16 03:43:10;;;;;;;1.95;1.33;;;;;;;;;;4987855;28;20042;-53
2022/03/16 03:45:36;;;;;;;1.30;1.20;;;;;;;;;;4987054;28;20030;-53
2022/03/16 03:48:02;;;;;;;1.10;1.00;;;;;;;;;;4986400;28;20029;-53
2022/03/16 03:50:29;;;;;;;2.30;1.45;;;;;;;;;;4967486;28;20524;-53
2022/03/16 03:52:55;;;;;;;1.55;1.38;;;;;;;;;;4975902;28;20386;-53
2022/03/16 03:55:22;;;;;;;1.20;1.10;;;;;;;;;;4986829;28;20485;-53
2022/03/16 03:57:48;;;;;;;1.55;1.10;;;;;;;;;;4985814;28;20547;-53
2022/03/16 04:00:14;;;;;;;1.35;1.15;;;;;;;;;;4987136;28;20034;-52
2022/03/16 04:02:48;;;;;;;1.10;0.90;;;;;;;;;;4987412;28;20076;-52
2022/03/16 04:05:14;;;;;;;0.90;0.90;;;;;;;;;;4980919;28;20045;-53
2022/03/16 04:07:40;;;;;;;1.13;1.00;;;;;;;;;;4967990;28;20254;-52
2022/03/16 04:10:06;;;;;;;1.33;1.10;;;;;;;;;;4967400;28;20050;-53
2022/03/16 04:12:32;;;;;;;2.20;1.45;;;;;;;;;;4966936;28;20027;-53
2022/03/16 04:14:58;;;;;;;1.35;1.23;;;;;;;;;;4967000;28;20027;-53
2022/03/16 04:17:24;;;;;;;1.77;1.10;;;;;;;;;;4966915;28;20034;-53
2022/03/16 04:19:50;;;;;;;1.05;0.95;;;;;;;;;;4971509;28;20030;-51
2022/03/16 04:22:16;;;;;;;1.80;1.30;;;;;;;;;;4985405;28;20030;-53
2022/03/16 04:24:42;;;;;;;1.83;1.40;;;;;;;;;;4985977;28;20022;-53
2022/03/16 04:27:08;;;;;;;1.17;1.00;;;;;;;;;;4986300;28;20065;-53
2022/03/16 04:29:34;;;;;;;0.93;0.82;;;;;;;;;;4986242;28;20050;-53
2022/03/16 04:32:00;;;;;;;1.35;1.20;;;;;;;;;;4985684;28;20031;-51
2022/03/16 04:34:27;;;;;;;1.20;1.02;;;;;;;;;;4985865;28;20023;-53
2022/03/16 04:36:53;;;;;;;1.75;1.27;;;;;;;;;;4986650;28;20047;-52
2022/03/16 04:39:20;;;;;;;1.40;1.15;;;;;;;;;;4984445;28;20022;-53
2022/03/16 04:41:46;;;;;;;2.05;1.40;;;;;;;;;;4986154;28;20493;-54
2022/03/16 04:44:12;;;;;;;1.48;1.08;;;;;;;;;;4985423;28;20034;-53
2022/03/16 04:46:38;;;;;;;1.58;1.10;;;;;;;;;;4985179;28;20045;-53
2022/03/16 04:49:04;;;;;;;1.85;1.30;;;;;;;;;;4986465;28;20050;-53
2022/03/16 04:51:30;;;;;;;2.45;1.30;;;;;;;;;;4985608;28;20065;-53
2022/03/16 04:53:56;;;;;;;2.03;1.20;;;;;;;;;;4986109;28;20489;-53
2022/03/16 04:56:22;;;;;;;2.22;1.30;;;;;;;;;;4968282;28;20541;-51
2022/03/16 04:58:48;;;;;;;1.60;1.48;;;;;;;;;;4982969;28;20318;-54
2022/03/16 05:01:14;;;;;;;2.53;1.30;;;;;;;;;;4966574;28;20516;-53
2022/03/16 05:03:41;;;;;;;1.70;1.60;;;;;;;;;;4967278;28;20510;-53
2022/03/16 05:06:07;;;;;;;1.95;1.38;;;;;;;;;;4966460;28;20097;-53
2022/03/16 05:08:36;;;;;;;1.70;1.52;;;;;;;;;;4979791;28;20049;-51
2022/03/16 05:11:03;;;;;;;2.00;1.58;;;;;;;;;;4983267;28;20034;-53
2022/03/16 05:13:29;;;;;;;2.65;1.50;;;;;;;;;;4985028;28;20030;-50
2022/03/16 05:15:55;;;;;;;2.25;1.48;;;;;;;;;;4985627;28;20041;-53
2022/03/16 05:18:23;;;;;;;2.00;1.50;;;;;;;;;;4972514;28;20027;-53
2022/03/16 05:20:49;;;;;;;2.28;1.75;;;;;;;;;;4966391;28;20117;-53
2022/03/16 05:23:15;;;;;;;1.70;1.40;;;;;;;;;;4966292;28;20026;-53
2022/03/16 05:25:41;;;;;;;1.92;1.52;;;;;;;;;;4967066;28;20122;-52
2022/03/16 05:28:08;;;;;;;2.88;1.67;;;;;;;;;;4975816;28;20029;-52
2022/03/16 05:30:34;;;;;;;3.28;1.80;;;;;;;;;;4985376;28;20057;-53
2022/03/16 05:33:01;;;;;;;2.97;1.60;;;;;;;;;;4985471;28;20093;-53
2022/03/16 05:35:29;;;;;;;2.47;2.10;;;;;;;;;;4984472;28;20069;-53
2022/03/16 05:37:55;;;;;;;2.33;1.90;;;;;;;;;;4976845;28;20528;-52
2022/03/16 05:40:21;;;;;;;3.05;2.20;;;;;;;;;;4970360;28;20093;-53
2022/03/16 05:42:47;;;;;;;2.53;2.10;;;;;;;;;;4972453;28;20060;-52
2022/03/16 05:45:13;;;;;;;3.60;2.42;;;;;;;;;;4990666;28;20038;-53
2022/03/16 05:47:39;;;;;;;3.30;2.70;;;;;;;;;;4991734;28;20069;-53
2022/03/16 05:50:06;;;;;;;3.25;2.30;;;;;;;;;;4991843;28;20034;-53
2022/03/16 05:52:33;;;;;;;4.45;2.60;;;;;;;;;;4991565;28;20038;-52
2022/03/16 05:55:00;;;;;;;3.78;2.75;;;;;;;;;;4975557;28;20034;-53
2022/03/16 05:57:27;;;;;;;4.70;2.70;;;;;;;;;;4971957;28;20031;-53
2022/03/16 05:59:53;;;;;;;2.97;2.15;;;;;;;;;;4971966;28;20050;-53
2022/03/16 06:02:20;;;;;;;2.88;2.22;;;;;;;;;;4979241;28;20073;-53
2022/03/16 06:04:46;;;;;;;2.83;2.15;;;;;;;;;;4977412;28;20035;-52
2022/03/16 06:07:13;;;;;;;3.90;2.60;;;;;;;;;;4972624;28;20450;-53
2022/03/16 06:09:40;;;;;;;3.13;2.45;;;;;;;;;;4977388;28;20057;-54
2022/03/16 06:12:06;;;;;;;3.83;2.20;;;;;;;;;;4990482;28;20026;-52
2022/03/16 06:14:32;;;;;;;3.17;2.55;;;;;;;;;;4991080;28;20041;-52
2022/03/16 06:16:59;;;;;;;3.53;2.30;;;;;;;;;;4973826;28;20022;-53
2022/03/16 06:19:25;;;;;;;3.38;2.53;;;;;;;;;;4991456;28;20037;-52
2022/03/16 06:21:51;;;;;;;4.35;2.47;;;;;;;;;;4990713;28;20409;-52
2022/03/16 06:24:18;;;;;;;4.40;2.28;;;;;;;;;;4991150;28;20034;-53
2022/03/16 06:26:45;;;;;;;3.30;2.75;;;;;;;;;;4992052;28;20037;-53
2022/03/16 06:29:12;;;;;;;4.55;2.78;;;;;;;;;;4992056;28;20041;-52
2022/03/16 06:31:38;;;;;;;3.30;2.40;;;;;;;;;;4989916;28;20390;-52
2022/03/16 06:34:05;;;;;;;4.15;2.88;;;;;;;;;;4991334;28;20401;-53
2022/03/16 06:36:31;;;;;;;3.00;2.30;;;;;;;;;;4991136;28;20026;-53
2022/03/16 06:38:58;;;;;;;3.53;2.47;;;;;;;;;;4991310;28;20106;-53
2022/03/16 06:41:24;;;;;;;5.38;2.85;;;;;;;;;;4990070;28;20516;-50
2022/03/16 06:43:50;;;;;;;3.78;2.58;;;;;;;;;;4990996;28;20046;-54
2022/03/16 06:46:16;;;;;;;3.75;2.42;;;;;;;;;;4991216;28;20117;-53
2022/03/16 06:48:42;;;;;;;4.30;2.80;;;;;;;;;;4991880;28;20033;-52
2022/03/16 06:51:09;;;;;;;4.03;2.50;;;;;;;;;;4988816;28;20023;-51
2022/03/16 06:53:35;;;;;;;4.45;2.50;;;;;;;;;;4987887;28;20479;-52
2022/03/16 06:56:03;;;;;;;2.60;2.30;;;;;;;;;;4988129;28;20022;-52
2022/03/16 06:58:30;;;;;;;3.28;2.50;;;;;;;;;;4979381;28;20042;-51
2022/03/16 07:00:57;;;;;;;2.72;2.33;;;;;;;;;;4968886;28;20033;-52
2022/03/16 07:03:23;;;;;;;4.55;2.60;;;;;;;;;;4968458;28;20110;-53
2022/03/16 07:05:49;;;;;;;3.03;2.42;;;;;;;;;;4968728;28;20026;-53
2022/03/16 07:08:16;;;;;;;3.47;2.30;;;;;;;;;;4981506;28;20066;-53
2022/03/16 07:10:43;;;;;;;3.45;2.10;;;;;;;;;;4979635;28;20037;-54
2022/03/16 07:13:11;;;;;;;2.45;2.22;;;;;;;;;;4968456;28;20041;-50
2022/03/16 07:15:37;;;;;;;3.05;2.30;;;;;;;;;;4968158;28;20019;-53
2022/03/16 07:18:03;;;;;;;4.38;2.25;;;;;;;;;;4968456;28;20410;-51
2022/03/16 07:20:31;;;;;;;3.78;2.58;;;;;;;;;;4968061;28;20058;-52
2022/03/16 07:23:16;;;;;;;3.10;2.40;;;;;;;;;;4968092;28;20092;-51
2022/03/16 07:25:47;;;;;;;3.25;2.65;;;;;;;;;;4968638;28;20022;-50
2022/03/16 07:28:13;;;;;;;4.32;2.30;;;;;;;;;;4968569;28;20031;-52
2022/03/16 07:30:41;;;;;;;3.55;2.13;;;;;;;;;;4974848;28;20108;-51
2022/03/16 07:33:08;;;;;;;2.40;2.05;;;;;;;;;;4987460;28;20022;-53
2022/03/16 07:35:35;;;;;;;3.78;2.40;;;;;;;;;;4987212;28;20488;-51
2022/03/16 07:38:02;;;;;;;3.08;2.78;;;;;;;;;;4986434;28;20057;-53
2022/03/16 07:40:30;;;;;;;2.60;2.20;;;;;;;;;;4987304;28;20022;-53
2022/03/16 07:42:56;;;;;;;3.97;2.10;;;;;;;;;;4988334;28;20042;-52
2022/03/16 07:45:22;;;;;;;3.78;2.15;;;;;;;;;;4987186;28;20034;-53
2022/03/16 07:47:49;;;;;;;3.00;2.20;;;;;;;;;;4985125;28;20067;-52
2022/03/16 07:50:15;;;;;;;2.83;1.80;;;;;;;;;;4987364;28;20027;-53
2022/03/16 07:52:42;;;;;;;2.53;1.90;;;;;;;;;;4989214;28;20035;-53
2022/03/16 07:55:09;;;;;;;3.33;1.90;;;;;;;;;;4988559;28;20050;-52
2022/03/16 07:57:38;;;;;;;2.47;1.80;;;;;;;;;;4985445;28;20802;-53
2022/03/16 08:00:05;;;;;;;3.45;2.10;;;;;;;;;;4986604;28;20486;-53
2022/03/16 08:02:31;;;;;;;1.80;1.70;;;;;;;;;;4986577;28;20996;-52
2022/03/16 08:05:00;;;;;;;4.47;1.83;;;;;;;;;;4987370;28;20445;-52
2022/03/16 08:07:29;;;;;;;1.80;1.65;;;;;;;;;;4988214;28;20053;-53
2022/03/16 08:09:56;;;;;;;4.95;2.15;;;;;;;;;;4988514;28;20037;-53
2022/03/16 08:12:22;;;;;;;2.35;1.65;;;;;;;;;;4987661;28;20026;-53
2022/03/16 08:14:48;;;;;;;3.10;2.05;;;;;;;;;;4987641;28;20502;-54
2022/03/16 08:17:14;;;;;;;2.10;1.60;;;;;;;;;;4969227;28;20023;-52
2022/03/16 08:19:40;;;;;;;2.15;1.60;;;;;;;;;;4969361;28;20042;-52
2022/03/16 08:22:06;;;;;;;3.95;1.85;;;;;;;;;;4968604;28;20031;-52
2022/03/16 08:24:32;;;;;;;2.63;1.85;;;;;;;;;;4977448;28;20038;-53
2022/03/16 08:27:00;;;;;;;2.83;1.85;;;;;;;;;;4987968;28;20030;-53
2022/03/16 08:29:26;;;;;;;1.85;1.65;;;;;;;;;;4987422;28;20125;-53
2022/03/16 08:31:52;;;;;;;1.73;1.50;;;;;;;;;;4987677;28;20026;-52
2022/03/16 08:34:18;;;;;;;2.25;1.67;;;;;;;;;;4987256;28;20497;-52
2022/03/16 08:36:44;;;;;;;2.15;1.90;;;;;;;;;;4988346;28;20022;-52
2022/03/16 08:39:10;;;;;;;3.80;1.48;;;;;;;;;;4984534;28;20457;-53
2022/03/16 08:41:36;;;;;;;3.00;1.95;;;;;;;;;;4982313;28;20106;-54
2022/03/16 08:44:03;;;;;;;2.05;1.70;;;;;;;;;;4977819;28;20045;-53
2022/03/16 08:46:29;;;;;;;2.95;1.83;;;;;;;;;;4985984;28;20023;-52
2022/03/16 08:48:55;;;;;;;2.55;2.03;;;;;;;;;;4987318;28;20031;-53
2022/03/16 08:51:22;;;;;;;4.10;2.40;;;;;;;;;;4986544;28;20026;-52
2022/03/16 08:53:49;;;;;;;3.47;2.08;;;;;;;;;;4987194;28;20101;-53
2022/03/16 08:56:16;;;;;;;4.10;1.92;;;;;;;;;;4988980;28;20208;-53
2022/03/16 08:58:43;;;;;;;2.30;1.88;;;;;;;;;;4978024;28;20034;-51
2022/03/16 09:01:10;;;;;;;1.73;1.40;;;;;;;;;;4976309;28;20019;-51
2022/03/16 09:03:37;;;;;;;4.43;1.67;;;;;;;;;;4986687;28;20042;-53
2022/03/16 09:06:03;;;;;;;2.90;1.60;;;;;;;;;;4982467;28;20501;-52
2022/03/16 09:08:29;;;;;;;1.92;1.42;;;;;;;;;;4986331;28;20034;-54
2022/03/16 09:10:57;;;;;;;3.00;1.48;;;;;;;;;;4986827;28;20018;-53
2022/03/16 09:13:24;;;;;;;4.25;2.00;;;;;;;;;;4984555;28;20501;-51
2022/03/16 09:15:51;;;;;;;2.83;1.65;;;;;;;;;;4986240;28;20437;-51
2022/03/16 09:18:20;;;;;;;4.50;2.10;;;;;;;;;;4987248;28;20038;-52
2022/03/16 09:20:46;;;;;;;2.72;1.70;;;;;;;;;;4986011;28;20034;-53
2022/03/16 09:23:13;;;;;;;2.35;1.73;;;;;;;;;;4987197;28;20089;-52
2022/03/16 09:25:41;;;;;;;3.05;2.05;;;;;;;;;;4986780;28;20026;-53
2022/03/16 09:28:08;;;;;;;2.65;1.55;;;;;;;;;;4986752;28;20041;-53
2022/03/16 09:30:34;;;;;;;4.22;2.03;;;;;;;;;;4986326;28;20104;-53
2022/03/16 09:33:01;;;;;;;2.35;1.70;;;;;;;;;;4986537;28;20034;-52
2022/03/16 09:35:27;;;;;;;5.70;2.25;;;;;;;;;;4986360;28;20023;-54
2022/03/16 09:37:54;;;;;;;2.25;1.63;;;;;;;;;;4986231;28;20390;-53
2022/03/16 09:40:20;;;;;;;3.28;1.58;;;;;;;;;;4987169;28;20041;-53
2022/03/16 09:42:48;;;;;;;3.03;1.60;;;;;;;;;;4987581;28;20541;-51
2022/03/16 09:45:21;;;;;;;2.47;1.88;;;;;;;;;;4987770;28;20049;-52
2022/03/16 09:47:48;;;;;;;3.35;1.88;;;;;;;;;;4985469;28;20030;-52
2022/03/16 09:50:18;;;;;;;4.05;1.80;;;;;;;;;;4988411;28;20034;-53
2022/03/16 09:52:45;;;;;;;4.97;1.92;;;;;;;;;;4971220;28;20034;-52
2022/03/16 09:55:11;;;;;;;2.72;1.70;;;;;;;;;;4987459;28;20026;-51
2022/03/16 09:57:37;;;;;;;5.22;2.25;;;;;;;;;;4986118;28;20034;-53
2022/03/16 10:00:06;;;;;;;3.15;1.77;;;;;;;;;;4986176;28;20073;-51
2022/03/16 10:02:32;;;;;;;3.10;1.70;;;;;;;;;;4984454;28;20637;-52
2022/03/16 10:04:58;;;;;;;6.97;2.30;;;;;;;;;;4986352;28;20030;-53
2022/03/16 10:07:29;;;;;;;3.40;1.70;;;;;;;;;;4984121;28;20053;-53
2022/03/16 10:15:25;;;;;;;3.13;1.77;;;;;;;;;;4986270;28;20037;-52
2022/03/16 10:17:59;;;;;;;4.35;2.00;;;;;;;;;;4987230;28;20382;-53
2022/03/16 10:20:28;;;;;;;3.38;2.00;;;;;;;;;;4987270;28;20402;-52
2022/03/16 10:22:58;;;;;;;2.15;1.60;;;;;;;;;;4987268;28;20033;-53
2022/03/16 10:25:25;;;;;;;2.40;1.60;;;;;;;;;;4982511;28;20035;-53
2022/03/16 10:27:52;;;;;;;2.63;1.55;;;;;;;;;;4983958;28;20034;-50
2022/03/16 10:30:20;;;;;;;2.67;1.63;;;;;;;;;;4989148;28;20037;-53
2022/03/16 10:32:53;;;;;;;3.38;1.50;;;;;;;;;;4990466;28;20026;-52
2022/03/16 10:35:19;;;;;;;2.22;1.55;;;;;;;;;;4989280;28;20033;-53
2022/03/16 10:37:47;;;;;;;2.65;1.70;;;;;;;;;;4989547;28;20022;-50
2022/03/16 10:40:20;;;;;;;2.05;1.38;;;;;;;;;;4989962;28;20044;-52
2022/03/16 10:48:22;;;;;;;3.20;1.73;;;;;;;;;;4989186;28;20054;-52
2022/03/16 10:50:50;;;;;;;2.80;1.75;;;;;;;;;;4989374;28;20050;-52
2022/03/16 10:53:17;;;;;;;1.85;1.35;;;;;;;;;;4988679;28;20031;-53
2022/03/16 10:55:45;;;;;;;1.80;1.50;;;;;;;;;;4987622;28;20053;-53
2022/03/16 10:58:14;;;;;;;1.73;1.33;;;;;;;;;;4983062;28;20031;-53
2022/03/16 11:00:41;;;;;;;2.10;1.60;;;;;;;;;;4988867;28;20023;-52
2022/03/16 11:03:12;;;;;;;2.58;1.38;;;;;;;;;;4988838;28;20057;-50
2022/03/16 11:05:40;;;;;;;1.40;1.30;;;;;;;;;;4988139;28;20054;-52
2022/03/16 11:08:07;;;;;;;1.60;1.20;;;;;;;;;;4987632;28;20029;-53
2022/03/16 11:10:40;;;;;;;1.95;1.20;;;;;;;;;;4988447;28;20030;-52
2022/03/16 11:15:53;;;;;;;2.08;1.48;;;;;;;;;;4980276;28;20157;-52
2022/03/16 11:18:20;;;;;;;2.53;1.63;;;;;;;;;;4969170;28;20018;-52
2022/03/16 11:20:50;;;;;;;2.22;1.67;;;;;;;;;;4978241;28;20034;-53
2022/03/16 11:26:11;;;;;;;3.55;1.60;;;;;;;;;;4989327;28;20053;-52
2022/03/16 11:28:56;;;;;;;1.95;1.35;;;;;;;;;;4990037;28;20036;-53
2022/03/16 11:31:28;;;;;;;3.53;1.80;;;;;;;;;;4987749;28;20622;-50
2022/03/16 11:33:55;;;;;;;2.92;1.67;;;;;;;;;;4988350;28;20381;-52
2022/03/16 11:36:29;;;;;;;4.13;1.63;;;;;;;;;;4989072;28;20026;-52
2022/03/16 11:38:55;;;;;;;3.35;1.60;;;;;;;;;;4989031;28;20165;-53
2022/03/16 11:41:28;;;;;;;2.05;1.40;;;;;;;;;;4989215;28;20022;-53
2022/03/16 11:44:01;;;;;;;4.07;1.27;;;;;;;;;;4988137;28;20038;-50
2022/03/16 11:46:28;;;;;;;3.28;1.60;;;;;;;;;;4989263;28;20023;-52
2022/03/16 11:49:02;;;;;;;2.30;1.60;;;;;;;;;;4989248;28;20116;-53
2022/03/16 11:51:28;;;;;;;2.50;1.40;;;;;;;;;;4989266;28;20038;-53
2022/03/16 11:54:01;;;;;;;2.15;1.10;;;;;;;;;;4989412;28;20034;-51
2022/03/16 11:56:31;;;;;;;3.47;1.55;;;;;;;;;;4984856;28;20033;-52
2022/03/16 11:59:02;;;;;;;2.10;1.27;;;;;;;;;;4971289;28;20035;-53
2022/03/16 12:01:29;;;;;;;1.60;1.17;;;;;;;;;;4988748;28;20049;-53
2022/03/16 12:04:08;;;;;;;2.80;1.60;;;;;;;;;;4988819;28;20537;-53
2022/03/16 12:06:53;;;;;;;1.90;1.30;;;;;;;;;;4981075;28;20035;-51
2022/03/16 12:09:25;;;;;;;3.60;1.95;;;;;;;;;;4984059;28;20030;-53
2022/03/16 12:15:10;;;;;;;3.75;1.50;;;;;;;;;;4989227;28;20037;-53
2022/03/16 12:17:37;;;;;;;3.13;1.40;;;;;;;;;;4984615;28;20036;-52
2022/03/16 12:20:12;;;;;;;4.53;1.77;;;;;;;;;;4988692;28;20519;-53
2022/03/16 12:22:48;;;;;;;2.42;1.50;;;;;;;;;;4980763;28;20097;-52
2022/03/16 12:25:26;;;;;;;5.13;1.60;;;;;;;;;;4969763;28;20102;-52
2022/03/16 12:30:41;;;;;;;3.42;1.80;;;;;;;;;;4985362;28;20041;-52
2022/03/16 12:33:10;;;;;;;3.08;1.63;;;;;;;;;;4988982;28;20032;-53
2022/03/16 12:35:36;;;;;;;2.30;1.45;;;;;;;;;;4985665;28;20022;-52
2022/03/16 12:38:06;;;;;;;2.67;1.50;;;;;;;;;;4986133;28;20034;-50
2022/03/16 12:40:32;;;;;;;1.55;1.20;;;;;;;;;;4991016;28;20069;-52
2022/03/16 12:42:58;;;;;;;1.40;1.20;;;;;;;;;;4987080;28;20032;-53
2022/03/16 12:45:28;;;;;;;2.20;1.23;;;;;;;;;;4986924;28;20030;-52
2022/03/16 12:48:04;;;;;;;2.13;1.40;;;;;;;;;;4985643;28;20425;-50
2022/03/16 12:50:30;;;;;;;1.02;0.93;;;;;;;;;;4985799;28;20509;-52
2022/03/16 12:52:57;;;;;;;2.28;1.23;;;;;;;;;;4985499;28;20395;-50
2022/03/16 12:55:24;;;;;;;1.55;1.20;;;;;;;;;;4966106;28;20414;-51
2022/03/16 12:57:52;;;;;;;1.30;1.10;;;;;;;;;;4986767;28;20062;-53
2022/03/16 13:00:18;;;;;;;2.28;1.10;;;;;;;;;;4987072;28;20030;-52
2022/03/16 13:02:47;;;;;;;1.90;1.20;;;;;;;;;;4996027;28;20030;-53
2022/03/16 13:05:18;;;;;;;1.25;0.93;;;;;;;;;;5003804;28;20504;-49
2022/03/16 13:07:45;;;;;;;2.15;1.27;;;;;;;;;;4997505;28;20042;-53
2022/03/16 13:10:12;;;;;;;2.10;1.80;;;;;;;;;;4987980;28;20054;-53
2022/03/16 13:12:41;;;;;;;2.38;1.13;;;;;;;;;;4987303;28;20078;-53
2022/03/16 13:15:08;;;;;;;2.47;1.35;;;;;;;;;;4987497;28;20102;-50
2022/03/16 13:17:37;;;;;;;4.00;1.30;;;;;;;;;;4974471;28;20445;-51
2022/03/16 13:20:04;;;;;;;2.00;1.08;;;;;;;;;;4986073;28;20037;-50
2022/03/16 13:22:30;;;;;;;1.45;0.90;;;;;;;;;;4986267;28;20046;-52
2022/03/16 13:25:03;;;;;;;1.58;0.93;;;;;;;;;;4986605;28;20041;-52
2022/03/16 13:27:35;;;;;;;1.20;0.95;;;;;;;;;;4986400;28;20041;-52
2022/03/16 13:30:03;;;;;;;1.45;1.00;;;;;;;;;;4976890;28;20335;-49
2022/03/16 13:32:30;;;;;;;1.98;1.13;;;;;;;;;;4985049;28;20553;-52
2022/03/16 13:35:08;;;;;;;2.15;1.00;;;;;;;;;;4982493;28;20062;-51
2022/03/16 13:37:36;;;;;;;1.80;1.00;;;;;;;;;;4979515;28;20108;-53
2022/03/16 13:40:02;;;;;;;1.30;0.98;;;;;;;;;;4985400;28;20022;-52
2022/03/16 13:42:29;;;;;;;1.83;1.30;;;;;;;;;;4985175;28;20034;-53
2022/03/16 13:45:10;;;;;;;1.20;0.80;;;;;;;;;;4984950;28;20603;-50
2022/03/16 13:47:36;;;;;;;2.25;1.17;;;;;;;;;;4986615;28;20037;-52
2022/03/16 13:50:03;;;;;;;2.13;1.13;;;;;;;;;;4985732;28;20026;-51
2022/03/16 13:52:35;;;;;;;2.15;1.10;;;;;;;;;;4985173;28;20034;-49
2022/03/16 13:55:09;;;;;;;1.77;1.00;;;;;;;;;;4985362;28;20030;-50
2022/03/16 13:57:41;;;;;;;2.22;1.15;;;;;;;;;;4986380;28;20066;-52
2022/03/16 14:00:09;;;;;;;3.42;0.93;;;;;;;;;;4987270;28;20022;-52
2022/03/16 14:02:36;;;;;;;2.00;1.40;;;;;;;;;;4989716;28;20034;-54
2022/03/16 14:05:04;;;;;;;1.55;1.13;;;;;;;;;;4984591;28;20084;-52
2022/03/16 14:07:34;;;;;;;1.20;1.05;;;;;;;;;;4971486;28;20038;-52
2022/03/16 14:10:04;;;;;;;2.17;1.27;;;;;;;;;;4989148;28;20565;-52
2022/03/16 14:12:34;;;;;;;2.80;1.30;;;;;;;;;;4988431;28;20109;-50
2022/03/16 14:15:01;;;;;;;2.78;1.52;;;;;;;;;;4994043;28;20113;-55
2022/03/16 14:17:42;;;;;;;3.08;1.45;;;;;;;;;;4989571;28;20026;-49
2022/03/16 14:20:16;;;;;;;2.35;1.30;;;;;;;;;;4989061;28;20033;-52
2022/03/16 14:22:46;;;;;;;2.22;1.73;;;;;;;;;;4989264;28;20034;-51
2022/03/16 14:25:16;;;;;;;2.35;1.65;;;;;;;;;;4988509;28;20062;-52
2022/03/16 14:27:42;;;;;;;3.63;1.40;;;;;;;;;;4992518;28;20081;-49
2022/03/16 14:30:08;;;;;;;2.72;1.20;;;;;;;;;;4996919;28;20038;-52
2022/03/16 14:32:34;;;;;;;2.28;1.30;;;;;;;;;;4986463;28;20292;-51
2022/03/16 14:35:00;;;;;;;2.17;1.20;;;;;;;;;;4988890;28;20105;-50
2022/03/16 14:37:27;;;;;;;2.22;1.15;;;;;;;;;;4989019;28;20026;-53
2022/03/16 14:39:53;;;;;;;1.52;1.20;;;;;;;;;;4989635;28;20018;-52
2022/03/16 14:42:19;;;;;;;1.00;0.90;;;;;;;;;;4990012;28;20042;-50
2022/03/16 14:44:46;;;;;;;1.40;0.90;;;;;;;;;;4987604;28;20464;-52
2022/03/16 14:47:12;;;;;;;1.25;0.90;;;;;;;;;;4986745;28;20121;-51
2022/03/16 14:49:39;;;;;;;1.33;1.15;;;;;;;;;;4992527;28;20478;-50
2022/03/16 14:52:06;;;;;;;2.25;1.20;;;;;;;;;;4986857;28;20073;-52
2022/03/16 14:54:32;;;;;;;1.45;1.23;;;;;;;;;;4986193;28;20065;-51
2022/03/16 14:57:00;;;;;;;1.85;1.20;;;;;;;;;;4990409;28;20730;-49
2022/03/16 14:59:26;;;;;;;1.52;0.95;;;;;;;;;;4988849;28;20030;-52
2022/03/16 15:01:52;;;;;;;2.78;1.40;;;;;;;;;;4987026;28;20482;-50
2022/03/16 15:04:18;;;;;;;3.00;2.00;;;;;;;;;;4990262;28;20448;-48
2022/03/16 15:06:45;;;;;;;2.35;1.42;;;;;;;;;;4990447;28;20104;-52